createdAt,value
2022-10-26T00:01:29.360Z,20.4
2022-10-26T00:03:13.041Z,20.4
2022-10-26T00:04:56.721Z,20.4
2022-10-26T00:06:40.426Z,20.4
2022-10-26T00:08:24.099Z,20.4
2022-10-26T00:10:07.802Z,20.4
2022-10-26T00:11:51.608Z,20.4
2022-10-26T00:13:35.250Z,20.4
2022-10-26T00:15:18.936Z,20.3
2022-10-26T00:17:02.613Z,20.3
2022-10-26T00:18:46.318Z,20.3
2022-10-26T00:20:30.027Z,20.3
2022-10-26T00:22:13.786Z,20.3
2022-10-26T00:23:57.463Z,20.3
2022-10-26T00:25:41.137Z,20.3
2022-10-26T00:27:24.823Z,20.3
2022-10-26T00:29:08.544Z,20.3
2022-10-26T00:30:52.231Z,20.3
2022-10-26T00:32:35.975Z,20.3
2022-10-26T00:34:19.656Z,20.3
2022-10-26T00:36:03.370Z,20.3
2022-10-26T00:37:47.058Z,20.3
2022-10-26T00:39:30.749Z,20.3
2022-10-26T00:41:14.499Z,20.3
2022-10-26T00:42:58.181Z,20.3
2022-10-26T00:44:41.861Z,20.3
2022-10-26T00:46:25.561Z,20.3
2022-10-26T00:48:09.262Z,20.3
2022-10-26T00:49:53.022Z,20.3
2022-10-26T00:51:36.702Z,20.3
2022-10-26T00:53:20.397Z,20.3
2022-10-26T00:55:04.080Z,20.3
2022-10-26T00:56:47.771Z,20.3
2022-10-26T00:58:31.481Z,20.3
2022-10-26T01:00:15.237Z,20.3
2022-10-26T01:01:58.909Z,20.3
2022-10-26T01:03:42.607Z,20.3
2022-10-26T01:05:26.302Z,20.3
2022-10-26T01:07:10.067Z,20.3
2022-10-26T01:08:53.753Z,20.3
2022-10-26T01:10:37.434Z,20.3
2022-10-26T01:12:21.110Z,20.3
2022-10-26T01:14:04.811Z,20.3
2022-10-26T01:15:48.525Z,20.3
2022-10-26T01:17:32.281Z,20.3
2022-10-26T01:19:15.969Z,20.3
2022-10-26T01:20:59.640Z,20.3
2022-10-26T01:22:43.319Z,20.3
2022-10-26T01:24:27.074Z,20.3
2022-10-26T01:26:10.715Z,20.3
2022-10-26T01:27:54.423Z,20.3
2022-10-26T01:29:38.164Z,20.3
2022-10-26T01:31:21.855Z,20.3
2022-10-26T01:33:05.552Z,20.3
2022-10-26T01:34:49.227Z,20.3
2022-10-26T01:36:32.935Z,20.3
2022-10-26T01:38:16.688Z,20.3
2022-10-26T01:40:00.410Z,20.3
2022-10-26T01:41:44.049Z,20.3
2022-10-26T01:43:27.747Z,20.3
2022-10-26T01:45:11.434Z,20.3
2022-10-26T01:46:55.132Z,20.3
2022-10-26T01:48:38.890Z,20.3
2022-10-26T01:50:22.570Z,20.3
2022-10-26T01:52:06.254Z,20.3
2022-10-26T01:53:49.945Z,20.3
2022-10-26T01:55:33.639Z,20.3
2022-10-26T01:57:17.354Z,20.3
2022-10-26T01:59:01.122Z,20.3
2022-10-26T02:00:44.780Z,20.3
2022-10-26T02:02:28.490Z,20.3
2022-10-26T02:04:12.149Z,20.3
2022-10-26T02:05:55.861Z,20.3
2022-10-26T02:07:39.619Z,20.3
2022-10-26T02:09:23.300Z,20.3
2022-10-26T02:11:06.981Z,20.3
2022-10-26T02:12:50.663Z,20.3
2022-10-26T02:14:34.390Z,20.3
2022-10-26T02:16:18.055Z,20.3
2022-10-26T02:18:01.858Z,20.3
2022-10-26T02:19:45.510Z,20.3
2022-10-26T02:21:29.187Z,20.3
2022-10-26T02:23:12.888Z,20.3
2022-10-26T02:24:56.594Z,20.3
2022-10-26T02:26:40.267Z,20.3
2022-10-26T02:28:24.026Z,20.3
2022-10-26T02:30:07.715Z,20.3
2022-10-26T02:31:51.394Z,20.2
2022-10-26T02:33:35.075Z,20.3
2022-10-26T02:35:18.785Z,20.3
2022-10-26T02:37:02.480Z,20.3
2022-10-26T02:38:46.233Z,20.2
2022-10-26T02:40:29.916Z,20.3
2022-10-26T02:42:13.600Z,20.2
2022-10-26T02:43:57.297Z,20.3
2022-10-26T02:45:41.010Z,20.3
2022-10-26T02:47:24.758Z,20.3
2022-10-26T02:49:08.439Z,20.3
2022-10-26T02:50:52.117Z,20.3
2022-10-26T02:52:35.814Z,20.3
2022-10-26T02:54:19.531Z,20.2
2022-10-26T02:56:03.287Z,20.3
2022-10-26T02:57:46.960Z,20.2
2022-10-26T02:59:30.650Z,20.2
2022-10-26T03:01:14.323Z,20.2
2022-10-26T03:02:58.030Z,20.2
2022-10-26T03:04:41.731Z,20.2
2022-10-26T03:06:25.485Z,20.2
2022-10-26T03:08:09.167Z,20.2
2022-10-26T03:09:52.849Z,20.2
2022-10-26T03:11:36.528Z,20.2
2022-10-26T03:13:20.239Z,20.2
2022-10-26T03:15:03.935Z,20.2
2022-10-26T03:16:47.620Z,20.2
2022-10-26T03:18:31.373Z,20.2
2022-10-26T03:20:15.059Z,20.2
2022-10-26T03:21:58.729Z,20.2
2022-10-26T03:23:42.438Z,20.2
2022-10-26T03:25:26.149Z,20.2
2022-10-26T03:27:09.904Z,20.2
2022-10-26T03:28:53.584Z,20.2
2022-10-26T03:30:37.290Z,20.2
2022-10-26T03:32:21.008Z,20.2
2022-10-26T03:34:04.654Z,20.2
2022-10-26T03:35:48.340Z,20.2
2022-10-26T03:37:32.049Z,20.2
2022-10-26T03:39:15.808Z,20.2
2022-10-26T03:40:59.510Z,20.2
2022-10-26T03:42:43.149Z,20.2
2022-10-26T03:44:26.840Z,20.2
2022-10-26T03:46:10.544Z,20.2
2022-10-26T03:47:54.309Z,20.2
2022-10-26T03:49:37.990Z,20.2
2022-10-26T03:51:21.673Z,20.2
2022-10-26T03:53:05.411Z,20.2
2022-10-26T03:54:49.058Z,20.2
2022-10-26T03:56:32.747Z,20.2
2022-10-26T03:58:16.449Z,20.2
2022-10-26T04:00:00.219Z,20.2
2022-10-26T04:01:43.885Z,20.2
2022-10-26T04:03:27.559Z,20.2
2022-10-26T04:05:11.256Z,20.2
2022-10-26T04:06:54.964Z,20.2
2022-10-26T04:08:38.716Z,20.2
2022-10-26T04:10:22.398Z,20.2
2022-10-26T04:12:06.075Z,20.2
2022-10-26T04:13:49.775Z,20.2
2022-10-26T04:15:33.467Z,20.2
2022-10-26T04:17:17.160Z,20.2
2022-10-26T04:19:00.968Z,20.2
2022-10-26T04:20:44.635Z,20.2
2022-10-26T04:22:28.284Z,20.2
2022-10-26T04:24:11.968Z,20.2
2022-10-26T04:25:55.754Z,20.2
2022-10-26T04:27:39.381Z,20.2
2022-10-26T04:29:23.135Z,20.2
2022-10-26T04:31:06.817Z,20.2
2022-10-26T04:32:50.503Z,20.2
2022-10-26T04:34:34.206Z,20.2
2022-10-26T04:36:17.886Z,20.2
2022-10-26T04:38:01.652Z,20.2
2022-10-26T04:39:45.334Z,20.2
2022-10-26T04:41:29.055Z,20.2
2022-10-26T04:43:12.768Z,20.2
2022-10-26T04:44:56.461Z,20.2
2022-10-26T04:46:40.248Z,20.2
2022-10-26T04:48:23.859Z,20.2
2022-10-26T04:50:07.554Z,20.2
2022-10-26T04:51:51.234Z,20.2
2022-10-26T04:53:34.972Z,20.2
2022-10-26T04:55:18.645Z,20.2
2022-10-26T04:57:02.431Z,20.2
2022-10-26T04:58:46.066Z,20.2
2022-10-26T05:00:29.742Z,20.2
2022-10-26T05:02:13.429Z,20.2
2022-10-26T05:03:57.139Z,20.2
2022-10-26T05:05:40.860Z,20.2
2022-10-26T05:07:25.425Z,20.2
2022-10-26T05:09:08.293Z,20.1
2022-10-26T05:10:51.954Z,20.1
2022-10-26T05:12:35.643Z,20.1
2022-10-26T05:14:19.333Z,20.1
2022-10-26T05:16:03.068Z,20.1
2022-10-26T05:17:46.790Z,20.1
2022-10-26T05:19:30.472Z,20.1
2022-10-26T05:21:14.226Z,20.2
2022-10-26T05:22:57.842Z,20.2
2022-10-26T05:24:41.550Z,20.2
2022-10-26T05:26:25.313Z,20.1
2022-10-26T05:28:08.991Z,20.1
2022-10-26T05:29:52.674Z,20.2
2022-10-26T05:31:36.432Z,20.1
2022-10-26T05:33:20.075Z,20.1
2022-10-26T05:35:03.839Z,20.1
2022-10-26T05:36:47.547Z,20.2
2022-10-26T05:38:31.200Z,20.2
2022-10-26T05:40:14.924Z,20.1
2022-10-26T05:41:58.604Z,20.1
2022-10-26T05:43:42.284Z,20.1
2022-10-26T05:45:26.057Z,20.1
2022-10-26T05:47:09.725Z,20.1
2022-10-26T05:48:53.404Z,20.1
2022-10-26T05:50:37.131Z,20.1
2022-10-26T05:52:20.784Z,20.1
2022-10-26T05:54:04.481Z,20.1
2022-10-26T05:55:48.245Z,20.1
2022-10-26T05:57:31.931Z,20.1
2022-10-26T05:59:15.644Z,20.1
2022-10-26T06:00:59.306Z,20.1
2022-10-26T06:02:43.018Z,20.1
2022-10-26T06:04:26.789Z,20.1
2022-10-26T06:06:10.458Z,20.1
2022-10-26T06:07:54.140Z,20.1
2022-10-26T06:09:37.822Z,20.1
2022-10-26T06:11:21.508Z,20.1
2022-10-26T06:13:05.200Z,20.1
2022-10-26T06:14:49.001Z,20.1
2022-10-26T06:16:32.659Z,20.1
2022-10-26T06:18:16.351Z,20.1
2022-10-26T06:20:00.067Z,20.1
2022-10-26T06:21:43.718Z,20.1
2022-10-26T06:23:27.438Z,20.1
2022-10-26T06:25:11.206Z,20.1
2022-10-26T06:26:54.873Z,20.1
2022-10-26T06:28:38.543Z,20.1
2022-10-26T06:30:22.263Z,20.1
2022-10-26T06:32:05.943Z,20.1
2022-10-26T06:33:49.708Z,20.1
2022-10-26T06:35:33.434Z,20.1
2022-10-26T06:37:17.084Z,20.1
2022-10-26T06:39:00.759Z,20.1
2022-10-26T06:40:44.462Z,20.1
2022-10-26T06:42:28.164Z,20.1
2022-10-26T06:44:11.912Z,20.1
2022-10-26T06:45:55.594Z,20.1
2022-10-26T06:47:39.285Z,20.1
2022-10-26T06:49:22.969Z,20.2
2022-10-26T06:51:06.681Z,20.1
2022-10-26T06:52:50.432Z,20.1
2022-10-26T06:54:34.116Z,20.1
2022-10-26T06:56:17.838Z,20.1
2022-10-26T06:58:01.494Z,20.1
2022-10-26T06:59:45.199Z,20.1
2022-10-26T07:01:28.915Z,20.1
2022-10-26T07:03:12.643Z,20.1
2022-10-26T07:04:56.370Z,20.1
2022-10-26T07:06:40.002Z,20.1
2022-10-26T07:08:23.696Z,20.1
2022-10-26T07:10:07.437Z,20.1
2022-10-26T07:11:51.095Z,20.1
2022-10-26T07:13:34.908Z,20.1
2022-10-26T07:15:18.528Z,20.2
2022-10-26T07:17:02.207Z,20.2
2022-10-26T07:18:45.907Z,20.2
2022-10-26T07:20:29.618Z,20.2
2022-10-26T07:22:13.389Z,20.2
2022-10-26T07:23:57.050Z,20.2
2022-10-26T07:25:40.729Z,20.2
2022-10-26T07:27:24.414Z,20.2
2022-10-26T07:29:08.144Z,20.2
2022-10-26T07:30:51.822Z,20.2
2022-10-26T07:32:35.605Z,20.2
2022-10-26T07:34:19.254Z,20.3
2022-10-26T07:36:02.951Z,20.3
2022-10-26T07:37:46.653Z,20.3
2022-10-26T07:39:30.329Z,20.3
2022-10-26T07:41:14.021Z,20.3
2022-10-26T07:42:57.784Z,20.3
2022-10-26T07:44:41.473Z,20.3
2022-10-26T07:46:25.140Z,20.3
2022-10-26T07:48:08.842Z,20.3
2022-10-26T07:49:52.536Z,20.3
2022-10-26T07:51:36.302Z,20.3
2022-10-26T07:53:19.981Z,20.3
2022-10-26T07:55:03.674Z,20.3
2022-10-26T07:56:47.349Z,20.3
2022-10-26T07:58:31.052Z,20.3
2022-10-26T08:00:14.777Z,20.3
2022-10-26T08:01:58.504Z,20.2
2022-10-26T08:03:42.189Z,20.2
2022-10-26T08:05:25.878Z,20.2
2022-10-26T08:07:09.577Z,20.2
2022-10-26T08:08:53.266Z,20.3
2022-10-26T08:10:36.962Z,20.2
2022-10-26T08:12:20.714Z,20.2
2022-10-26T08:14:04.448Z,20.2
2022-10-26T08:15:48.070Z,20.2
2022-10-26T08:17:31.759Z,20.2
2022-10-26T08:19:15.519Z,20.3
2022-10-26T08:20:59.236Z,20.3
2022-10-26T08:22:42.917Z,20.3
2022-10-26T08:24:26.599Z,20.3
2022-10-26T08:26:10.277Z,20.4
2022-10-26T08:27:53.987Z,20.4
2022-10-26T08:29:37.677Z,20.5
2022-10-26T08:31:21.377Z,20.6
2022-10-26T08:33:05.220Z,20.7
2022-10-26T08:34:48.808Z,20.8
2022-10-26T08:36:32.491Z,20.8
2022-10-26T08:38:16.252Z,20.8
2022-10-26T08:39:59.973Z,20.8
2022-10-26T08:41:43.699Z,20.8
2022-10-26T08:43:27.395Z,20.8
2022-10-26T08:45:11.087Z,20.9
2022-10-26T08:46:54.723Z,20.9
2022-10-26T08:48:38.405Z,20.9
2022-10-26T08:50:22.168Z,20.9
2022-10-26T08:52:05.847Z,20.9
2022-10-26T08:53:49.550Z,20.9
2022-10-26T08:55:33.222Z,20.9
2022-10-26T08:57:16.926Z,21
2022-10-26T08:59:00.645Z,21
2022-10-26T09:00:44.313Z,21
2022-10-26T09:02:28.056Z,21
2022-10-26T09:04:11.736Z,21
2022-10-26T09:05:55.415Z,21
2022-10-26T09:07:39.119Z,21
2022-10-26T09:09:22.827Z,20.9
2022-10-26T09:11:06.600Z,20.9
2022-10-26T09:12:50.328Z,21
2022-10-26T09:14:33.935Z,21
2022-10-26T09:16:17.624Z,21
2022-10-26T09:18:01.323Z,21
2022-10-26T09:19:45.036Z,21
2022-10-26T09:21:28.828Z,21.1
2022-10-26T09:23:12.512Z,21.1
2022-10-26T09:24:56.153Z,21.1
2022-10-26T09:26:39.883Z,21.2
2022-10-26T09:28:23.543Z,21.2
2022-10-26T09:30:07.240Z,21.2
2022-10-26T09:31:50.988Z,21.2
2022-10-26T09:33:34.726Z,21.3
2022-10-26T09:35:18.402Z,21.3
2022-10-26T09:37:02.046Z,21.4
2022-10-26T09:38:46.121Z,21.4
2022-10-26T09:40:29.521Z,21.5
2022-10-26T09:42:13.209Z,21.5
2022-10-26T09:43:56.877Z,21.6
2022-10-26T09:45:40.565Z,21.6
2022-10-26T09:47:24.262Z,21.6
2022-10-26T09:49:07.971Z,21.7
2022-10-26T09:50:51.716Z,21.7
2022-10-26T09:52:35.399Z,21.8
2022-10-26T09:54:19.084Z,21.9
2022-10-26T09:56:02.771Z,21.9
2022-10-26T09:57:46.476Z,21.9
2022-10-26T09:59:30.241Z,22
2022-10-26T10:01:13.929Z,22
2022-10-26T10:02:57.606Z,22
2022-10-26T10:04:41.285Z,22
2022-10-26T10:06:24.996Z,21.9
2022-10-26T10:08:08.715Z,21.9
2022-10-26T10:09:52.400Z,21.9
2022-10-26T10:11:36.138Z,21.9
2022-10-26T10:13:19.810Z,22
2022-10-26T10:15:03.488Z,22
2022-10-26T10:16:47.179Z,22
2022-10-26T10:18:30.905Z,22
2022-10-26T10:20:14.654Z,22.1
2022-10-26T10:21:58.332Z,22.1
2022-10-26T10:23:42.024Z,22.1
2022-10-26T10:25:25.699Z,22.1
2022-10-26T10:27:09.396Z,22.1
2022-10-26T10:28:53.175Z,22
2022-10-26T10:30:36.859Z,22.1
2022-10-26T10:32:20.541Z,22.1
2022-10-26T10:34:04.220Z,22.1
2022-10-26T10:35:47.920Z,22.1
2022-10-26T10:37:31.603Z,22.1
2022-10-26T10:40:58.996Z,22.2
2022-10-26T10:42:42.746Z,22.2
2022-10-26T10:44:26.432Z,22.2
2022-10-26T10:46:10.109Z,22.3
2022-10-26T10:47:53.806Z,22.3
2022-10-26T10:49:37.520Z,22.3
2022-10-26T10:51:21.213Z,22.3
2022-10-26T10:53:04.950Z,22.4
2022-10-26T10:54:48.626Z,22.4
2022-10-26T10:56:32.317Z,22.5
2022-10-26T10:58:16.008Z,22.5
2022-10-26T10:59:59.791Z,22.6
2022-10-26T11:01:43.500Z,22.6
2022-10-26T11:03:27.159Z,22.6
2022-10-26T11:05:10.907Z,22.6
2022-10-26T11:06:54.558Z,22.6
2022-10-26T11:08:38.244Z,22.6
2022-10-26T11:10:21.941Z,22.5
2022-10-26T11:12:05.735Z,22.5
2022-10-26T11:13:49.356Z,22.5
2022-10-26T11:15:33.053Z,22.5
2022-10-26T11:17:16.743Z,22.5
2022-10-26T11:19:00.444Z,22.4
2022-10-26T11:20:44.234Z,22.4
2022-10-26T11:22:27.907Z,22.4
2022-10-26T11:24:11.571Z,22.4
2022-10-26T11:25:55.288Z,22.4
2022-10-26T11:27:38.959Z,22.4
2022-10-26T11:29:22.682Z,22.5
2022-10-26T11:31:06.427Z,22.5
2022-10-26T11:32:50.123Z,22.5
2022-10-26T11:34:33.855Z,22.5
2022-10-26T11:36:17.464Z,22.6
2022-10-26T11:38:01.178Z,22.7
2022-10-26T11:39:44.938Z,22.7
2022-10-26T11:41:28.637Z,22.7
2022-10-26T11:43:12.302Z,22.7
2022-10-26T11:44:55.969Z,22.8
2022-10-26T11:46:39.673Z,22.8
2022-10-26T11:48:23.386Z,22.8
2022-10-26T11:50:07.129Z,22.8
2022-10-26T11:51:50.831Z,22.8
2022-10-26T11:53:34.521Z,22.8
2022-10-26T11:55:18.253Z,22.8
2022-10-26T11:57:01.923Z,22.8
2022-10-26T11:58:45.597Z,22.8
2022-10-26T12:00:29.352Z,22.9
2022-10-26T12:02:13.059Z,22.9
2022-10-26T12:03:56.728Z,22.9
2022-10-26T12:05:40.407Z,22.9
2022-10-26T12:07:24.117Z,22.9
2022-10-26T12:09:07.863Z,22.9
2022-10-26T12:10:51.548Z,22.9
2022-10-26T12:12:35.233Z,22.9
2022-10-26T12:14:18.955Z,22.9
2022-10-26T12:16:02.713Z,22.9
2022-10-26T12:17:46.387Z,22.9
2022-10-26T12:19:30.085Z,23
2022-10-26T12:21:13.755Z,22.9
2022-10-26T12:22:57.456Z,23
2022-10-26T12:24:41.155Z,23
2022-10-26T12:26:24.860Z,23
2022-10-26T12:28:08.591Z,23
2022-10-26T12:29:52.306Z,23
2022-10-26T12:31:35.978Z,23
2022-10-26T12:33:19.655Z,22.9
2022-10-26T12:35:03.394Z,22.9
2022-10-26T12:36:47.116Z,22.9
2022-10-26T12:38:30.817Z,22.9
2022-10-26T12:40:14.477Z,22.8
2022-10-26T12:41:58.206Z,22.8
2022-10-26T12:43:41.880Z,22.8
2022-10-26T12:45:25.573Z,22.8
2022-10-26T12:47:09.364Z,22.8
2022-10-26T12:48:53.033Z,22.8
2022-10-26T12:50:36.679Z,22.8
2022-10-26T12:52:20.399Z,22.8
2022-10-26T12:54:04.105Z,22.8
2022-10-26T12:55:47.959Z,22.8
2022-10-26T12:57:31.547Z,22.8
2022-10-26T12:59:15.285Z,22.7
2022-10-26T13:00:58.914Z,22.7
2022-10-26T13:02:42.620Z,22.7
2022-10-26T13:04:26.305Z,22.7
2022-10-26T13:06:10.053Z,22.7
2022-10-26T13:07:53.731Z,22.7
2022-10-26T13:09:37.424Z,22.7
2022-10-26T13:11:21.121Z,22.7
2022-10-26T13:13:04.815Z,22.7
2022-10-26T13:14:48.581Z,22.7
2022-10-26T13:16:32.259Z,22.6
2022-10-26T13:18:15.961Z,22.6
2022-10-26T13:19:59.633Z,22.6
2022-10-26T13:21:43.335Z,22.6
2022-10-26T13:23:27.111Z,22.6
2022-10-26T13:25:10.815Z,22.6
2022-10-26T13:26:54.463Z,22.6
2022-10-26T13:28:38.157Z,22.6
2022-10-26T13:30:21.852Z,22.6
2022-10-26T13:32:05.551Z,22.6
2022-10-26T13:33:49.232Z,22.6
2022-10-26T13:35:32.993Z,22.6
2022-10-26T13:37:16.677Z,22.6
2022-10-26T13:39:00.347Z,22.6
2022-10-26T13:40:44.058Z,22.5
2022-10-26T13:42:27.865Z,22.5
2022-10-26T13:44:11.518Z,22.5
2022-10-26T13:45:55.192Z,22.5
2022-10-26T13:47:38.928Z,22.5
2022-10-26T13:49:22.571Z,22.6
2022-10-26T13:51:06.382Z,22.6
2022-10-26T13:52:49.963Z,22.5
2022-10-26T13:54:33.754Z,22.5
2022-10-26T13:56:17.419Z,22.5
2022-10-26T13:58:01.103Z,22.5
2022-10-26T13:59:44.814Z,22.5
2022-10-26T14:01:28.521Z,22.5
2022-10-26T14:03:12.235Z,22.5
2022-10-26T14:04:55.939Z,22.4
2022-10-26T14:06:39.613Z,22.4
2022-10-26T14:08:23.326Z,22.4
2022-10-26T14:10:06.998Z,22.4
2022-10-26T14:11:50.768Z,22.4
2022-10-26T14:13:34.487Z,22.3
2022-10-26T14:15:18.133Z,22.3
2022-10-26T14:17:01.823Z,22.3
2022-10-26T14:18:45.510Z,22.2
2022-10-26T14:20:29.205Z,22.2
2022-10-26T14:22:12.989Z,22.2
2022-10-26T14:23:56.647Z,22.2
2022-10-26T14:25:40.326Z,22.2
2022-10-26T14:27:24.033Z,22.2
2022-10-26T14:29:07.729Z,22.1
2022-10-26T14:30:51.490Z,22.1
2022-10-26T14:32:35.174Z,22.1
2022-10-26T14:34:18.952Z,22.1
2022-10-26T14:36:02.560Z,22.1
2022-10-26T14:37:46.515Z,22
2022-10-26T14:39:29.962Z,22
2022-10-26T14:41:13.754Z,22
2022-10-26T14:42:57.374Z,22
2022-10-26T14:44:41.078Z,22
2022-10-26T14:46:24.764Z,22
2022-10-26T14:48:08.487Z,21.9
2022-10-26T14:49:52.220Z,21.9
2022-10-26T14:51:35.945Z,21.9
2022-10-26T14:53:19.636Z,21.9
2022-10-26T14:55:03.266Z,21.8
2022-10-26T14:56:46.978Z,21.8
2022-10-26T14:58:30.751Z,21.8
2022-10-26T15:00:14.430Z,21.8
2022-10-26T15:01:58.193Z,21.7
2022-10-26T15:03:41.795Z,21.7
2022-10-26T15:05:25.522Z,21.7
2022-10-26T15:07:09.200Z,21.7
2022-10-26T15:08:52.982Z,21.7
2022-10-26T15:10:36.639Z,21.6
2022-10-26T15:12:20.353Z,21.6
2022-10-26T15:14:04.027Z,21.6
2022-10-26T15:15:47.702Z,21.6
2022-10-26T15:17:31.407Z,21.5
2022-10-26T15:19:15.188Z,21.5
2022-10-26T15:20:58.894Z,21.5
2022-10-26T15:22:42.515Z,21.5
2022-10-26T15:24:26.282Z,21.5
2022-10-26T15:26:09.932Z,21.5
2022-10-26T15:27:53.723Z,21.5
2022-10-26T15:29:37.368Z,21.4
2022-10-26T15:31:21.055Z,21.4
2022-10-26T15:33:04.742Z,21.4
2022-10-26T15:34:48.436Z,21.4
2022-10-26T15:36:32.132Z,21.4
2022-10-26T15:38:15.946Z,21.4
2022-10-26T15:39:59.562Z,21.4
2022-10-26T15:41:43.321Z,21.4
2022-10-26T15:43:26.935Z,21.4
2022-10-26T15:45:10.658Z,21.4
2022-10-26T15:46:54.335Z,21.4
2022-10-26T15:48:38.130Z,21.3
2022-10-26T15:50:21.767Z,21.3
2022-10-26T15:52:05.474Z,21.3
2022-10-26T15:53:49.149Z,21.3
2022-10-26T15:55:32.900Z,21.3
2022-10-26T15:57:16.547Z,21.3
2022-10-26T15:59:00.292Z,21.3
2022-10-26T16:00:43.974Z,21.3
2022-10-26T16:02:27.659Z,21.2
2022-10-26T16:04:11.368Z,21.2
2022-10-26T16:05:55.072Z,21.2
2022-10-26T16:07:38.815Z,21.2
2022-10-26T16:09:22.512Z,21.2
2022-10-26T16:11:06.226Z,21.2
2022-10-26T16:12:49.888Z,21.2
2022-10-26T16:14:33.669Z,21.1
2022-10-26T16:16:17.342Z,21.1
2022-10-26T16:18:01.025Z,21.1
2022-10-26T16:19:44.704Z,21.1
2022-10-26T16:21:28.384Z,21.1
2022-10-26T16:23:12.084Z,21.1
2022-10-26T16:24:55.795Z,21.1
2022-10-26T16:26:39.547Z,21.1
2022-10-26T16:28:23.281Z,21.1
2022-10-26T16:30:06.906Z,21.1
2022-10-26T16:31:50.601Z,21
2022-10-26T16:33:34.305Z,21
2022-10-26T16:35:18.099Z,21
2022-10-26T16:37:01.750Z,21
2022-10-26T16:38:45.453Z,21
2022-10-26T16:40:29.126Z,21
2022-10-26T16:42:12.822Z,21
2022-10-26T16:43:56.533Z,21
2022-10-26T16:45:40.279Z,21
2022-10-26T16:47:23.957Z,21
2022-10-26T16:49:07.709Z,21
2022-10-26T16:50:51.340Z,21
2022-10-26T16:52:35.011Z,20.9
2022-10-26T16:54:18.746Z,20.9
2022-10-26T16:56:02.481Z,20.9
2022-10-26T16:57:46.254Z,20.9
2022-10-26T16:59:29.849Z,20.9
2022-10-26T17:01:13.531Z,20.9
2022-10-26T17:02:57.240Z,20.9
2022-10-26T17:04:41.037Z,20.9
2022-10-26T17:06:24.710Z,20.9
2022-10-26T17:08:08.414Z,20.9
2022-10-26T17:09:52.050Z,20.9
2022-10-26T17:11:35.827Z,20.9
2022-10-26T17:13:19.523Z,20.9
2022-10-26T17:15:03.139Z,20.9
2022-10-26T17:16:46.887Z,20.9
2022-10-26T17:18:30.575Z,20.9
2022-10-26T17:20:14.256Z,20.9
2022-10-26T17:21:58.134Z,20.9
2022-10-26T17:23:41.817Z,20.9
2022-10-26T17:25:25.544Z,20.9
2022-10-26T17:27:09.149Z,20.9
2022-10-26T17:28:52.929Z,20.9
2022-10-26T17:30:36.487Z,20.9
2022-10-26T17:32:20.307Z,20.9
2022-10-26T17:34:03.888Z,20.9
2022-10-26T17:35:47.705Z,20.9
2022-10-26T17:37:31.422Z,20.9
2022-10-26T17:39:15.108Z,20.9
2022-10-26T17:40:58.662Z,20.9
2022-10-26T17:42:42.485Z,21
2022-10-26T17:44:26.200Z,21
2022-10-26T17:46:09.881Z,21
2022-10-26T17:47:53.633Z,21
2022-10-26T17:49:37.193Z,21
2022-10-26T17:51:21.000Z,21
2022-10-26T17:53:04.653Z,21
2022-10-26T17:54:48.435Z,21
2022-10-26T17:56:32.134Z,21
2022-10-26T17:58:15.824Z,21
2022-10-26T17:59:59.517Z,21
2022-10-26T18:01:43.068Z,21
2022-10-26T18:03:26.929Z,21
2022-10-26T18:05:10.626Z,21
2022-10-26T18:06:54.391Z,21
2022-10-26T18:08:37.911Z,21
2022-10-26T18:10:21.764Z,21
2022-10-26T18:12:05.416Z,21
2022-10-26T18:13:49.158Z,21
2022-10-26T18:15:32.732Z,21
2022-10-26T18:17:16.534Z,21.1
2022-10-26T18:19:00.270Z,21.1
2022-10-26T18:20:43.894Z,21.1
2022-10-26T18:22:27.496Z,21.1
2022-10-26T18:24:11.186Z,21.1
2022-10-26T18:25:55.003Z,21.1
2022-10-26T18:27:38.728Z,21.2
2022-10-26T18:29:22.328Z,21.2
2022-10-26T18:31:06.012Z,21.2
2022-10-26T18:32:49.694Z,21.2
2022-10-26T18:34:33.462Z,21.2
2022-10-26T18:36:17.231Z,21.2
2022-10-26T18:38:00.899Z,21.2
2022-10-26T18:39:44.527Z,21.2
2022-10-26T18:41:28.377Z,21.2
2022-10-26T18:43:12.056Z,21.2
2022-10-26T18:44:55.652Z,21.2
2022-10-26T18:46:39.369Z,21.2
2022-10-26T18:48:23.137Z,21.2
2022-10-26T18:50:06.811Z,21.2
2022-10-26T18:51:50.549Z,21.2
2022-10-26T18:53:34.128Z,21.2
2022-10-26T18:55:17.889Z,21.2
2022-10-26T18:57:01.711Z,21.2
2022-10-26T18:58:45.400Z,21.2
2022-10-26T19:00:29.035Z,21.2
2022-10-26T19:02:12.757Z,21.2
2022-10-26T19:03:57.050Z,21.2
2022-10-26T19:05:40.225Z,21.2
2022-10-26T19:07:23.889Z,21.2
2022-10-26T19:09:07.621Z,21.2
2022-10-26T19:10:51.153Z,21.2
2022-10-26T19:12:34.984Z,21.2
2022-10-26T19:14:18.571Z,21.2
2022-10-26T19:16:02.460Z,21.1
2022-10-26T19:17:46.069Z,21.2
2022-10-26T19:19:29.664Z,21.1
2022-10-26T19:21:13.377Z,21.1
2022-10-26T19:22:57.075Z,21.1
2022-10-26T19:24:40.786Z,21.1
2022-10-26T19:26:24.507Z,21.1
2022-10-26T19:28:08.199Z,21.1
2022-10-26T19:29:51.912Z,21.1
2022-10-26T19:31:35.592Z,21.1
2022-10-26T19:33:19.353Z,21.1
2022-10-26T19:35:03.033Z,21.1
2022-10-26T19:36:46.721Z,21.1
2022-10-26T19:38:30.391Z,21.1
2022-10-26T19:40:14.099Z,21.1
2022-10-26T19:41:57.797Z,21.1
2022-10-26T19:43:41.495Z,21.1
2022-10-26T19:45:25.247Z,21.1
2022-10-26T19:47:08.917Z,21.1
2022-10-26T19:48:52.607Z,21.1
2022-10-26T19:50:36.310Z,21.1
2022-10-26T19:52:20.034Z,21
2022-10-26T19:54:03.762Z,21
2022-10-26T19:55:47.445Z,21
2022-10-26T19:57:31.134Z,21
2022-10-26T19:59:14.812Z,21
2022-10-26T20:00:58.512Z,21
2022-10-26T20:02:42.224Z,21
2022-10-26T20:04:25.974Z,21
2022-10-26T20:06:09.650Z,20.9
2022-10-26T20:07:53.336Z,20.9
2022-10-26T20:09:37.020Z,20.9
2022-10-26T20:11:20.717Z,20.9
2022-10-26T20:13:04.423Z,20.9
2022-10-26T20:14:48.182Z,20.9
2022-10-26T20:16:31.857Z,20.9
2022-10-26T20:18:15.533Z,20.8
2022-10-26T20:19:59.214Z,20.8
2022-10-26T20:21:42.933Z,20.8
2022-10-26T20:23:26.657Z,20.8
2022-10-26T20:25:10.379Z,20.8
2022-10-26T20:26:54.062Z,20.8
2022-10-26T20:28:37.746Z,20.8
2022-10-26T20:30:21.455Z,20.8
2022-10-26T20:32:05.401Z,20.8
2022-10-26T20:33:48.909Z,20.8
2022-10-26T20:35:32.638Z,20.7
2022-10-26T20:37:16.273Z,20.7
2022-10-26T20:38:59.981Z,20.7
2022-10-26T20:40:43.661Z,20.7
2022-10-26T20:42:27.364Z,20.7
2022-10-26T20:44:11.110Z,20.7
2022-10-26T20:45:54.792Z,20.7
2022-10-26T20:47:38.479Z,20.7
2022-10-26T20:49:22.154Z,20.7
2022-10-26T20:51:05.875Z,20.7
2022-10-26T20:52:49.562Z,20.7
2022-10-26T20:54:33.249Z,20.7
2022-10-26T20:56:16.994Z,20.7
2022-10-26T20:58:00.674Z,20.7
2022-10-26T20:59:44.367Z,20.6
2022-10-26T21:01:28.062Z,20.6
2022-10-26T21:03:11.775Z,20.6
2022-10-26T21:04:55.517Z,20.6
2022-10-26T21:06:39.233Z,20.6
2022-10-26T21:08:22.883Z,20.6
2022-10-26T21:10:06.566Z,20.6
2022-10-26T21:11:50.280Z,20.6
2022-10-26T21:13:33.963Z,20.6
2022-10-26T21:15:17.723Z,20.6
2022-10-26T21:17:01.404Z,20.6
2022-10-26T21:18:45.086Z,20.6
2022-10-26T21:20:28.763Z,20.6
2022-10-26T21:22:12.477Z,20.6
2022-10-26T21:23:56.248Z,20.6
2022-10-26T21:25:39.929Z,20.6
2022-10-26T21:27:23.615Z,20.6
2022-10-26T21:29:07.292Z,20.6
2022-10-26T21:30:50.996Z,20.6
2022-10-26T21:32:34.698Z,20.6
2022-10-26T21:34:18.382Z,20.6
2022-10-26T21:36:02.133Z,20.6
2022-10-26T21:37:45.830Z,20.6
2022-10-26T21:39:29.506Z,20.6
2022-10-26T21:41:13.200Z,20.6
2022-10-26T21:42:56.901Z,20.6
2022-10-26T21:44:40.663Z,20.6
2022-10-26T21:46:24.341Z,20.6
2022-10-26T21:48:08.016Z,20.6
2022-10-26T21:49:51.714Z,20.5
2022-10-26T21:51:35.431Z,20.6
2022-10-26T21:53:19.182Z,20.5
2022-10-26T21:55:02.886Z,20.5
2022-10-26T21:56:46.544Z,20.5
2022-10-26T21:58:30.225Z,20.5
2022-10-26T22:00:13.928Z,20.5
2022-10-26T22:01:57.709Z,20.5
2022-10-26T22:03:41.387Z,20.5
2022-10-26T22:05:25.063Z,20.5
2022-10-26T22:07:08.766Z,20.5
2022-10-26T22:08:52.457Z,20.5
2022-10-26T22:10:36.146Z,20.5
2022-10-26T22:12:19.910Z,20.5
2022-10-26T22:14:03.592Z,20.5
2022-10-26T22:15:47.276Z,20.5
2022-10-26T22:17:30.960Z,20.5
2022-10-26T22:19:14.671Z,20.5
2022-10-26T22:20:58.368Z,20.5
2022-10-26T22:22:42.116Z,20.5
2022-10-26T22:24:25.815Z,20.5
2022-10-26T22:26:09.737Z,20.5
2022-10-26T22:27:53.169Z,20.5
2022-10-26T22:29:36.871Z,20.5
2022-10-26T22:31:20.558Z,20.5
2022-10-26T22:33:04.337Z,20.5
2022-10-26T22:34:48.004Z,20.5
2022-10-26T22:36:31.690Z,20.5
2022-10-26T22:38:15.378Z,20.5
2022-10-26T22:39:59.083Z,20.5
2022-10-26T22:41:42.839Z,20.5
2022-10-26T22:43:26.524Z,20.5
2022-10-26T22:45:10.203Z,20.5
2022-10-26T22:46:53.883Z,20.4
2022-10-26T22:48:37.574Z,20.4
2022-10-26T22:50:21.289Z,20.4
2022-10-26T22:52:04.987Z,20.4
2022-10-26T22:53:48.735Z,20.4
2022-10-26T22:55:32.409Z,20.4
2022-10-26T22:57:16.111Z,20.4
2022-10-26T22:58:59.792Z,20.4
2022-10-26T23:00:43.480Z,20.4
2022-10-26T23:02:27.182Z,20.4
2022-10-26T23:04:10.933Z,20.4
2022-10-26T23:05:54.630Z,20.4
2022-10-26T23:07:38.294Z,20.4
2022-10-26T23:09:22.017Z,20.4
2022-10-26T23:11:05.703Z,20.4